sensor_id;sensor_type;location;lat;lon;timestamp;P1;durP1;ratioP1;P2;durP2;ratioP2
8837;SDS011;4455;50.880;4.698;2022-08-14T00:00:41;3.80;;;3.30;;
8837;SDS011;4455;50.880;4.698;2022-08-14T00:03:16;3.93;;;3.23;;
8837;SDS011;4455;50.880;4.698;2022-08-14T00:05:43;4.10;;;3.13;;
8837;SDS011;4455;50.880;4.698;2022-08-14T00:08:14;4.07;;;3.37;;
8837;SDS011;4455;50.880;4.698;2022-08-14T00:10:42;3.50;;;3.20;;
8837;SDS011;4455;50.880;4.698;2022-08-14T00:13:12;3.67;;;2.97;;
8837;SDS011;4455;50.880;4.698;2022-08-14T00:15:41;3.30;;;3.00;;
8837;SDS011;4455;50.880;4.698;2022-08-14T00:18:09;3.40;;;2.90;;
8837;SDS011;4455;50.880;4.698;2022-08-14T00:20:41;6.97;;;4.80;;
8837;SDS011;4455;50.880;4.698;2022-08-14T00:23:10;8.90;;;6.17;;
8837;SDS011;4455;50.880;4.698;2022-08-14T00:25:38;5.67;;;4.20;;
8837;SDS011;4455;50.880;4.698;2022-08-14T00:28:06;3.70;;;3.30;;
8837;SDS011;4455;50.880;4.698;2022-08-14T00:30:38;3.10;;;2.80;;
8837;SDS011;4455;50.880;4.698;2022-08-14T00:33:08;7.93;;;3.40;;
8837;SDS011;4455;50.880;4.698;2022-08-14T00:35:34;2.90;;;2.70;;
8837;SDS011;4455;50.880;4.698;2022-08-14T00:38:01;3.07;;;2.80;;
8837;SDS011;4455;50.880;4.698;2022-08-14T00:40:28;3.13;;;2.83;;
8837;SDS011;4455;50.880;4.698;2022-08-14T00:42:54;3.30;;;2.83;;
8837;SDS011;4455;50.880;4.698;2022-08-14T00:45:21;4.97;;;2.90;;
8837;SDS011;4455;50.880;4.698;2022-08-14T00:47:48;3.57;;;2.80;;
8837;SDS011;4455;50.880;4.698;2022-08-14T00:50:17;4.67;;;3.40;;
8837;SDS011;4455;50.880;4.698;2022-08-14T00:52:45;3.20;;;2.90;;
8837;SDS011;4455;50.880;4.698;2022-08-14T00:57:41;5.33;;;3.27;;
8837;SDS011;4455;50.880;4.698;2022-08-14T01:00:11;3.10;;;2.80;;
8837;SDS011;4455;50.880;4.698;2022-08-14T01:02:40;4.07;;;2.90;;
8837;SDS011;4455;50.880;4.698;2022-08-14T01:05:08;6.33;;;2.90;;
8837;SDS011;4455;50.880;4.698;2022-08-14T01:07:49;3.50;;;3.17;;
8837;SDS011;4455;50.880;4.698;2022-08-14T01:10:18;3.47;;;3.17;;
8837;SDS011;4455;50.880;4.698;2022-08-14T01:12:45;3.63;;;2.97;;
8837;SDS011;4455;50.880;4.698;2022-08-14T01:15:13;4.20;;;3.47;;
8837;SDS011;4455;50.880;4.698;2022-08-14T01:17:41;4.33;;;3.10;;
8837;SDS011;4455;50.880;4.698;2022-08-14T01:20:25;3.17;;;2.97;;
8837;SDS011;4455;50.880;4.698;2022-08-14T01:23:11;3.37;;;2.83;;
8837;SDS011;4455;50.880;4.698;2022-08-14T01:25:39;4.97;;;2.90;;
8837;SDS011;4455;50.880;4.698;2022-08-14T01:28:06;4.47;;;3.07;;
8837;SDS011;4455;50.880;4.698;2022-08-14T01:30:33;3.83;;;3.43;;
8837;SDS011;4455;50.880;4.698;2022-08-14T01:33:02;4.63;;;2.90;;
8837;SDS011;4455;50.880;4.698;2022-08-14T01:35:29;5.23;;;3.30;;
8837;SDS011;4455;50.880;4.698;2022-08-14T01:37:55;3.50;;;3.20;;
8837;SDS011;4455;50.880;4.698;2022-08-14T01:40:25;5.03;;;3.27;;
8837;SDS011;4455;50.880;4.698;2022-08-14T01:42:52;3.53;;;3.20;;
8837;SDS011;4455;50.880;4.698;2022-08-14T01:45:20;4.37;;;3.27;;
8837;SDS011;4455;50.880;4.698;2022-08-14T01:47:45;3.60;;;3.00;;
8837;SDS011;4455;50.880;4.698;2022-08-14T01:50:11;4.70;;;3.30;;
8837;SDS011;4455;50.880;4.698;2022-08-14T01:52:38;4.43;;;3.10;;
8837;SDS011;4455;50.880;4.698;2022-08-14T01:55:06;4.83;;;3.20;;
8837;SDS011;4455;50.880;4.698;2022-08-14T01:57:38;3.60;;;3.30;;
8837;SDS011;4455;50.880;4.698;2022-08-14T02:00:08;4.33;;;3.10;;
8837;SDS011;4455;50.880;4.698;2022-08-14T02:02:40;5.60;;;3.30;;
8837;SDS011;4455;50.880;4.698;2022-08-14T02:05:07;2.97;;;2.67;;
8837;SDS011;4455;50.880;4.698;2022-08-14T02:07:39;3.80;;;3.13;;
8837;SDS011;4455;50.880;4.698;2022-08-14T02:10:08;3.87;;;3.00;;
8837;SDS011;4455;50.880;4.698;2022-08-14T02:12:35;3.93;;;2.83;;
8837;SDS011;4455;50.880;4.698;2022-08-14T02:15:01;4.07;;;3.00;;
8837;SDS011;4455;50.880;4.698;2022-08-14T02:17:33;5.30;;;3.40;;
8837;SDS011;4455;50.880;4.698;2022-08-14T02:19:59;3.57;;;3.27;;
8837;SDS011;4455;50.880;4.698;2022-08-14T02:22:25;4.00;;;3.20;;
8837;SDS011;4455;50.880;4.698;2022-08-14T02:24:51;3.50;;;3.20;;
8837;SDS011;4455;50.880;4.698;2022-08-14T02:27:17;4.67;;;3.20;;
8837;SDS011;4455;50.880;4.698;2022-08-14T02:29:45;3.50;;;3.20;;
8837;SDS011;4455;50.880;4.698;2022-08-14T02:32:11;3.57;;;2.93;;
8837;SDS011;4455;50.880;4.698;2022-08-14T02:34:38;4.20;;;3.43;;
8837;SDS011;4455;50.880;4.698;2022-08-14T02:37:07;3.40;;;2.90;;
8837;SDS011;4455;50.880;4.698;2022-08-14T02:39:40;4.27;;;3.33;;
8837;SDS011;4455;50.880;4.698;2022-08-14T02:42:11;3.43;;;3.13;;
8837;SDS011;4455;50.880;4.698;2022-08-14T02:44:40;5.63;;;3.10;;
8837;SDS011;4455;50.880;4.698;2022-08-14T02:47:07;3.23;;;2.93;;
8837;SDS011;4455;50.880;4.698;2022-08-14T02:49:34;6.03;;;3.80;;
8837;SDS011;4455;50.880;4.698;2022-08-14T02:52:00;4.60;;;3.40;;
8837;SDS011;4455;50.880;4.698;2022-08-14T02:54:26;6.30;;;3.53;;
8837;SDS011;4455;50.880;4.698;2022-08-14T02:56:53;3.73;;;3.33;;
8837;SDS011;4455;50.880;4.698;2022-08-14T02:59:20;4.90;;;3.87;;
8837;SDS011;4455;50.880;4.698;2022-08-14T03:01:49;4.47;;;3.40;;
8837;SDS011;4455;50.880;4.698;2022-08-14T03:04:16;5.67;;;3.20;;
8837;SDS011;4455;50.880;4.698;2022-08-14T03:06:42;4.77;;;3.30;;
8837;SDS011;4455;50.880;4.698;2022-08-14T03:09:09;4.10;;;3.70;;
8837;SDS011;4455;50.880;4.698;2022-08-14T03:11:35;4.53;;;3.50;;
8837;SDS011;4455;50.880;4.698;2022-08-14T03:14:03;3.70;;;3.13;;
8837;SDS011;4455;50.880;4.698;2022-08-14T03:16:29;5.70;;;5.20;;
8837;SDS011;4455;50.880;4.698;2022-08-14T03:19:01;5.03;;;3.43;;
8837;SDS011;4455;50.880;4.698;2022-08-14T03:21:29;3.87;;;3.50;;
8837;SDS011;4455;50.880;4.698;2022-08-14T03:23:57;3.63;;;3.20;;
8837;SDS011;4455;50.880;4.698;2022-08-14T03:26:43;4.13;;;3.50;;
8837;SDS011;4455;50.880;4.698;2022-08-14T03:29:11;5.53;;;3.83;;
8837;SDS011;4455;50.880;4.698;2022-08-14T03:31:39;4.30;;;3.90;;
8837;SDS011;4455;50.880;4.698;2022-08-14T03:34:08;5.70;;;3.40;;
8837;SDS011;4455;50.880;4.698;2022-08-14T03:36:36;4.03;;;3.63;;
8837;SDS011;4455;50.880;4.698;2022-08-14T03:39:05;5.63;;;3.73;;
8837;SDS011;4455;50.880;4.698;2022-08-14T03:41:32;4.97;;;3.47;;
8837;SDS011;4455;50.880;4.698;2022-08-14T03:44:00;3.40;;;3.10;;
8837;SDS011;4455;50.880;4.698;2022-08-14T03:46:31;7.20;;;3.73;;
8837;SDS011;4455;50.880;4.698;2022-08-14T03:48:59;3.73;;;3.30;;
8837;SDS011;4455;50.880;4.698;2022-08-14T03:51:29;4.20;;;3.80;;
8837;SDS011;4455;50.880;4.698;2022-08-14T03:53:58;5.17;;;4.13;;
8837;SDS011;4455;50.880;4.698;2022-08-14T03:56:26;3.90;;;3.33;;
8837;SDS011;4455;50.880;4.698;2022-08-14T03:59:00;4.27;;;3.60;;
8837;SDS011;4455;50.880;4.698;2022-08-14T04:01:29;3.60;;;3.30;;
8837;SDS011;4455;50.880;4.698;2022-08-14T04:03:55;4.63;;;3.60;;
8837;SDS011;4455;50.880;4.698;2022-08-14T04:06:34;3.73;;;3.40;;
8837;SDS011;4455;50.880;4.698;2022-08-14T04:09:02;5.27;;;3.60;;
8837;SDS011;4455;50.880;4.698;2022-08-14T04:11:29;4.00;;;3.70;;
8837;SDS011;4455;50.880;4.698;2022-08-14T04:13:56;4.33;;;3.93;;
8837;SDS011;4455;50.880;4.698;2022-08-14T04:16:22;4.93;;;4.53;;
8837;SDS011;4455;50.880;4.698;2022-08-14T04:18:52;4.20;;;3.80;;
8837;SDS011;4455;50.880;4.698;2022-08-14T04:21:21;4.23;;;3.83;;
8837;SDS011;4455;50.880;4.698;2022-08-14T04:23:50;4.87;;;4.33;;
8837;SDS011;4455;50.880;4.698;2022-08-14T04:26:19;8.07;;;4.17;;
8837;SDS011;4455;50.880;4.698;2022-08-14T04:28:47;5.40;;;4.20;;
8837;SDS011;4455;50.880;4.698;2022-08-14T04:31:15;5.23;;;4.03;;
8837;SDS011;4455;50.880;4.698;2022-08-14T04:33:42;4.43;;;4.00;;
8837;SDS011;4455;50.880;4.698;2022-08-14T04:36:08;4.20;;;3.80;;
8837;SDS011;4455;50.880;4.698;2022-08-14T04:38:34;7.03;;;4.43;;
8837;SDS011;4455;50.880;4.698;2022-08-14T04:41:18;6.83;;;4.53;;
8837;SDS011;4455;50.880;4.698;2022-08-14T04:44:03;5.80;;;4.50;;
8837;SDS011;4455;50.880;4.698;2022-08-14T04:46:32;7.13;;;4.50;;
8837;SDS011;4455;50.880;4.698;2022-08-14T04:48:59;7.50;;;4.93;;
8837;SDS011;4455;50.880;4.698;2022-08-14T04:51:26;9.03;;;4.90;;
8837;SDS011;4455;50.880;4.698;2022-08-14T04:53:53;8.40;;;4.90;;
8837;SDS011;4455;50.880;4.698;2022-08-14T04:56:23;7.30;;;4.40;;
8837;SDS011;4455;50.880;4.698;2022-08-14T04:58:51;7.70;;;4.80;;
8837;SDS011;4455;50.880;4.698;2022-08-14T05:01:21;7.97;;;4.77;;
8837;SDS011;4455;50.880;4.698;2022-08-14T05:03:49;7.43;;;4.73;;
8837;SDS011;4455;50.880;4.698;2022-08-14T05:06:14;6.20;;;4.70;;
8837;SDS011;4455;50.880;4.698;2022-08-14T05:08:40;6.57;;;4.43;;
8837;SDS011;4455;50.880;4.698;2022-08-14T05:11:07;5.47;;;4.73;;
8837;SDS011;4455;50.880;4.698;2022-08-14T05:13:35;11.10;;;4.83;;
8837;SDS011;4455;50.880;4.698;2022-08-14T05:16:04;5.40;;;4.23;;
8837;SDS011;4455;50.880;4.698;2022-08-14T05:18:33;5.53;;;4.60;;
8837;SDS011;4455;50.880;4.698;2022-08-14T05:21:01;6.17;;;4.70;;
8837;SDS011;4455;50.880;4.698;2022-08-14T05:23:30;5.87;;;4.90;;
8837;SDS011;4455;50.880;4.698;2022-08-14T05:25:59;5.60;;;4.17;;
8837;SDS011;4455;50.880;4.698;2022-08-14T05:28:37;5.80;;;4.47;;
8837;SDS011;4455;50.880;4.698;2022-08-14T05:31:07;4.73;;;4.33;;
8837;SDS011;4455;50.880;4.698;2022-08-14T05:33:33;7.00;;;4.60;;
8837;SDS011;4455;50.880;4.698;2022-08-14T05:36:01;4.43;;;4.03;;
8837;SDS011;4455;50.880;4.698;2022-08-14T05:38:40;4.50;;;4.10;;
8837;SDS011;4455;50.880;4.698;2022-08-14T05:41:13;4.93;;;4.30;;
8837;SDS011;4455;50.880;4.698;2022-08-14T05:43:41;4.80;;;4.40;;
8837;SDS011;4455;50.880;4.698;2022-08-14T05:46:12;5.10;;;4.37;;
8837;SDS011;4455;50.880;4.698;2022-08-14T05:48:39;6.10;;;4.57;;
8837;SDS011;4455;50.880;4.698;2022-08-14T05:51:05;5.07;;;4.57;;
8837;SDS011;4455;50.880;4.698;2022-08-14T05:53:31;6.33;;;4.80;;
8837;SDS011;4455;50.880;4.698;2022-08-14T05:55:59;5.27;;;4.67;;
8837;SDS011;4455;50.880;4.698;2022-08-14T05:58:27;5.30;;;4.80;;
8837;SDS011;4455;50.880;4.698;2022-08-14T06:00:54;6.53;;;5.10;;
8837;SDS011;4455;50.880;4.698;2022-08-14T06:03:25;7.20;;;4.60;;
8837;SDS011;4455;50.880;4.698;2022-08-14T06:05:52;5.50;;;4.80;;
8837;SDS011;4455;50.880;4.698;2022-08-14T06:08:23;7.03;;;4.50;;
8837;SDS011;4455;50.880;4.698;2022-08-14T06:10:50;5.23;;;4.70;;
8837;SDS011;4455;50.880;4.698;2022-08-14T06:13:18;5.20;;;4.53;;
8837;SDS011;4455;50.880;4.698;2022-08-14T06:15:44;4.83;;;4.27;;
8837;SDS011;4455;50.880;4.698;2022-08-14T06:18:13;5.30;;;4.00;;
8837;SDS011;4455;50.880;4.698;2022-08-14T06:20:41;4.77;;;4.20;;
8837;SDS011;4455;50.880;4.698;2022-08-14T06:23:06;5.07;;;3.93;;
8837;SDS011;4455;50.880;4.698;2022-08-14T06:25:32;6.00;;;4.53;;
8837;SDS011;4455;50.880;4.698;2022-08-14T06:27:58;8.50;;;6.50;;
8837;SDS011;4455;50.880;4.698;2022-08-14T06:30:25;4.63;;;4.23;;
8837;SDS011;4455;50.880;4.698;2022-08-14T06:32:53;4.80;;;4.40;;
8837;SDS011;4455;50.880;4.698;2022-08-14T06:35:19;5.00;;;3.87;;
8837;SDS011;4455;50.880;4.698;2022-08-14T06:37:55;4.83;;;4.27;;
8837;SDS011;4455;50.880;4.698;2022-08-14T06:40:23;7.40;;;4.00;;
8837;SDS011;4455;50.880;4.698;2022-08-14T06:42:50;4.70;;;3.60;;
8837;SDS011;4455;50.880;4.698;2022-08-14T06:45:16;4.10;;;3.70;;
8837;SDS011;4455;50.880;4.698;2022-08-14T06:47:48;4.60;;;3.77;;
8837;SDS011;4455;50.880;4.698;2022-08-14T06:50:16;4.20;;;3.80;;
8837;SDS011;4455;50.880;4.698;2022-08-14T06:52:43;6.67;;;4.10;;
8837;SDS011;4455;50.880;4.698;2022-08-14T06:55:11;4.10;;;3.57;;
8837;SDS011;4455;50.880;4.698;2022-08-14T06:57:42;4.90;;;4.30;;
8837;SDS011;4455;50.880;4.698;2022-08-14T07:00:16;5.27;;;3.87;;
8837;SDS011;4455;50.880;4.698;2022-08-14T07:02:46;5.63;;;4.37;;
8837;SDS011;4455;50.880;4.698;2022-08-14T07:05:35;5.23;;;4.10;;
8837;SDS011;4455;50.880;4.698;2022-08-14T07:08:12;4.53;;;3.87;;
8837;SDS011;4455;50.880;4.698;2022-08-14T07:10:42;5.63;;;4.10;;
8837;SDS011;4455;50.880;4.698;2022-08-14T07:13:10;7.37;;;4.53;;
8837;SDS011;4455;50.880;4.698;2022-08-14T07:15:36;6.03;;;3.77;;
8837;SDS011;4455;50.880;4.698;2022-08-14T07:18:02;4.00;;;3.60;;
8837;SDS011;4455;50.880;4.698;2022-08-14T07:20:29;3.87;;;3.53;;
8837;SDS011;4455;50.880;4.698;2022-08-14T07:22:55;4.50;;;3.70;;
8837;SDS011;4455;50.880;4.698;2022-08-14T07:25:25;5.83;;;3.60;;
8837;SDS011;4455;50.880;4.698;2022-08-14T07:27:53;6.13;;;3.30;;
8837;SDS011;4455;50.880;4.698;2022-08-14T07:30:20;3.40;;;3.10;;
8837;SDS011;4455;50.880;4.698;2022-08-14T07:32:46;3.90;;;3.50;;
8837;SDS011;4455;50.880;4.698;2022-08-14T07:35:13;4.23;;;3.77;;
8837;SDS011;4455;50.880;4.698;2022-08-14T07:37:39;4.90;;;3.80;;
8837;SDS011;4455;50.880;4.698;2022-08-14T07:40:06;9.17;;;7.60;;
8837;SDS011;4455;50.880;4.698;2022-08-14T07:42:32;4.27;;;3.70;;
8837;SDS011;4455;50.880;4.698;2022-08-14T07:44:58;4.60;;;3.30;;
8837;SDS011;4455;50.880;4.698;2022-08-14T07:47:25;4.10;;;3.70;;
8837;SDS011;4455;50.880;4.698;2022-08-14T07:49:53;5.13;;;4.27;;
8837;SDS011;4455;50.880;4.698;2022-08-14T07:52:28;4.30;;;3.50;;
8837;SDS011;4455;50.880;4.698;2022-08-14T07:54:54;6.60;;;3.93;;
8837;SDS011;4455;50.880;4.698;2022-08-14T07:57:21;6.43;;;4.30;;
8837;SDS011;4455;50.880;4.698;2022-08-14T07:59:47;7.83;;;5.17;;
8837;SDS011;4455;50.880;4.698;2022-08-14T08:02:14;6.40;;;4.10;;
8837;SDS011;4455;50.880;4.698;2022-08-14T08:04:43;4.93;;;3.83;;
8837;SDS011;4455;50.880;4.698;2022-08-14T08:07:11;4.80;;;4.07;;
8837;SDS011;4455;50.880;4.698;2022-08-14T08:09:40;4.20;;;3.80;;
8837;SDS011;4455;50.880;4.698;2022-08-14T08:12:11;5.30;;;3.90;;
8837;SDS011;4455;50.880;4.698;2022-08-14T08:14:40;7.43;;;3.70;;
8837;SDS011;4455;50.880;4.698;2022-08-14T08:17:08;4.70;;;3.60;;
8837;SDS011;4455;50.880;4.698;2022-08-14T08:19:35;4.90;;;4.13;;
8837;SDS011;4455;50.880;4.698;2022-08-14T08:22:02;6.17;;;4.10;;
8837;SDS011;4455;50.880;4.698;2022-08-14T08:24:28;4.23;;;3.67;;
8837;SDS011;4455;50.880;4.698;2022-08-14T08:26:55;4.67;;;3.70;;
8837;SDS011;4455;50.880;4.698;2022-08-14T08:29:22;6.73;;;4.00;;
8837;SDS011;4455;50.880;4.698;2022-08-14T08:31:52;4.33;;;3.47;;
8837;SDS011;4455;50.880;4.698;2022-08-14T08:34:19;4.63;;;3.47;;
8837;SDS011;4455;50.880;4.698;2022-08-14T08:36:45;4.20;;;3.80;;
8837;SDS011;4455;50.880;4.698;2022-08-14T08:39:11;3.60;;;3.30;;
8837;SDS011;4455;50.880;4.698;2022-08-14T08:41:46;5.10;;;3.90;;
8837;SDS011;4455;50.880;4.698;2022-08-14T08:44:12;5.63;;;3.60;;
8837;SDS011;4455;50.880;4.698;2022-08-14T08:46:39;4.27;;;3.53;;
8837;SDS011;4455;50.880;4.698;2022-08-14T08:49:07;4.17;;;3.27;;
8837;SDS011;4455;50.880;4.698;2022-08-14T08:51:37;3.70;;;3.40;;
8837;SDS011;4455;50.880;4.698;2022-08-14T08:54:15;4.33;;;3.67;;
8837;SDS011;4455;50.880;4.698;2022-08-14T08:56:42;3.90;;;3.27;;
8837;SDS011;4455;50.880;4.698;2022-08-14T09:01:51;4.03;;;3.53;;
8837;SDS011;4455;50.880;4.698;2022-08-14T09:04:18;3.80;;;3.50;;
8837;SDS011;4455;50.880;4.698;2022-08-14T09:06:45;3.57;;;3.10;;
8837;SDS011;4455;50.880;4.698;2022-08-14T09:09:25;3.27;;;3.00;;
8837;SDS011;4455;50.880;4.698;2022-08-14T09:11:53;4.40;;;3.40;;
8837;SDS011;4455;50.880;4.698;2022-08-14T09:14:21;3.40;;;3.10;;
8837;SDS011;4455;50.880;4.698;2022-08-14T09:16:48;3.27;;;2.97;;
8837;SDS011;4455;50.880;4.698;2022-08-14T09:19:15;4.43;;;3.50;;
8837;SDS011;4455;50.880;4.698;2022-08-14T09:21:42;4.13;;;3.50;;
8837;SDS011;4455;50.880;4.698;2022-08-14T09:24:10;4.10;;;3.27;;
8837;SDS011;4455;50.880;4.698;2022-08-14T09:26:36;3.97;;;3.40;;
8837;SDS011;4455;50.880;4.698;2022-08-14T09:29:04;3.00;;;2.70;;
8837;SDS011;4455;50.880;4.698;2022-08-14T09:31:32;3.27;;;2.77;;
8837;SDS011;4455;50.880;4.698;2022-08-14T09:45:38;3.67;;;3.20;;
8837;SDS011;4455;50.880;4.698;2022-08-14T09:48:18;4.47;;;3.40;;
8837;SDS011;4455;50.880;4.698;2022-08-14T09:50:49;4.20;;;3.83;;
8837;SDS011;4455;50.880;4.698;2022-08-14T09:53:17;4.03;;;3.73;;
8837;SDS011;4455;50.880;4.698;2022-08-14T09:55:59;3.70;;;3.40;;
8837;SDS011;4455;50.880;4.698;2022-08-14T09:58:37;3.50;;;2.60;;
8837;SDS011;4455;50.880;4.698;2022-08-14T10:01:11;3.58;;;3.25;;
8837;SDS011;4455;50.880;4.698;2022-08-14T10:03:49;3.10;;;2.80;;
8837;SDS011;4455;50.880;4.698;2022-08-14T10:06:21;3.07;;;2.70;;
8837;SDS011;4455;50.880;4.698;2022-08-14T10:08:53;3.50;;;2.83;;
8837;SDS011;4455;50.880;4.698;2022-08-14T10:11:28;4.03;;;2.60;;
8837;SDS011;4455;50.880;4.698;2022-08-14T10:14:10;3.10;;;2.40;;
8837;SDS011;4455;50.880;4.698;2022-08-14T10:16:43;2.40;;;2.20;;
8837;SDS011;4455;50.880;4.698;2022-08-14T10:19:11;3.73;;;2.80;;
8837;SDS011;4455;50.880;4.698;2022-08-14T10:21:39;4.22;;;2.50;;
8837;SDS011;4455;50.880;4.698;2022-08-14T10:24:10;3.80;;;2.53;;
8837;SDS011;4455;50.880;4.698;2022-08-14T10:26:57;4.07;;;2.80;;
8837;SDS011;4455;50.880;4.698;2022-08-14T10:29:37;2.80;;;2.53;;
8837;SDS011;4455;50.880;4.698;2022-08-14T10:32:05;3.10;;;2.80;;
8837;SDS011;4455;50.880;4.698;2022-08-14T10:34:35;3.38;;;2.55;;
8837;SDS011;4455;50.880;4.698;2022-08-14T10:37:04;2.70;;;2.50;;
8837;SDS011;4455;50.880;4.698;2022-08-14T10:39:36;4.32;;;2.10;;
8837;SDS011;4455;50.880;4.698;2022-08-14T10:42:04;3.10;;;2.50;;
8837;SDS011;4455;50.880;4.698;2022-08-14T10:44:53;2.72;;;2.05;;
8837;SDS011;4455;50.880;4.698;2022-08-14T10:47:20;2.65;;;2.30;;
8837;SDS011;4455;50.880;4.698;2022-08-14T10:49:56;3.63;;;2.35;;
8837;SDS011;4455;50.880;4.698;2022-08-14T10:52:24;2.70;;;2.35;;
8837;SDS011;4455;50.880;4.698;2022-08-14T10:55:09;2.30;;;2.10;;
8837;SDS011;4455;50.880;4.698;2022-08-14T10:57:47;3.15;;;2.15;;
8837;SDS011;4455;50.880;4.698;2022-08-14T11:00:17;2.30;;;2.10;;
8837;SDS011;4455;50.880;4.698;2022-08-14T11:03:03;2.35;;;2.15;;
8837;SDS011;4455;50.880;4.698;2022-08-14T11:08:06;2.08;;;1.90;;
8837;SDS011;4455;50.880;4.698;2022-08-14T11:10:43;2.78;;;2.30;;
8837;SDS011;4455;50.880;4.698;2022-08-14T11:13:19;5.40;;;2.20;;
8837;SDS011;4455;50.880;4.698;2022-08-14T11:15:46;2.78;;;2.28;;
8837;SDS011;4455;50.880;4.698;2022-08-14T11:18:13;2.28;;;1.98;;
8837;SDS011;4455;50.880;4.698;2022-08-14T11:20:42;3.83;;;2.50;;
8837;SDS011;4455;50.880;4.698;2022-08-14T11:23:20;2.60;;;2.20;;
8837;SDS011;4455;50.880;4.698;2022-08-14T11:25:56;1.92;;;1.83;;
8837;SDS011;4455;50.880;4.698;2022-08-14T11:28:31;2.20;;;2.00;;
8837;SDS011;4455;50.880;4.698;2022-08-14T11:30:59;2.97;;;1.83;;
8837;SDS011;4455;50.880;4.698;2022-08-14T11:33:27;4.13;;;2.55;;
8837;SDS011;4455;50.880;4.698;2022-08-14T11:35:57;3.35;;;2.30;;
8837;SDS011;4455;50.880;4.698;2022-08-14T11:38:26;2.25;;;2.05;;
8837;SDS011;4455;50.880;4.698;2022-08-14T11:40:55;4.93;;;1.90;;
8837;SDS011;4455;50.880;4.698;2022-08-14T11:43:22;2.35;;;2.15;;
8837;SDS011;4455;50.880;4.698;2022-08-14T11:45:49;3.30;;;2.10;;
8837;SDS011;4455;50.880;4.698;2022-08-14T11:48:17;2.38;;;1.85;;
8837;SDS011;4455;50.880;4.698;2022-08-14T11:50:47;2.63;;;2.20;;
8837;SDS011;4455;50.880;4.698;2022-08-14T11:53:17;2.92;;;2.47;;
8837;SDS011;4455;50.880;4.698;2022-08-14T11:55:55;3.63;;;2.20;;
8837;SDS011;4455;50.880;4.698;2022-08-14T11:58:26;2.30;;;2.10;;
8837;SDS011;4455;50.880;4.698;2022-08-14T12:00:55;2.30;;;2.10;;
8837;SDS011;4455;50.880;4.698;2022-08-14T12:03:43;4.53;;;2.40;;
8837;SDS011;4455;50.880;4.698;2022-08-14T12:06:12;4.53;;;2.35;;
8837;SDS011;4455;50.880;4.698;2022-08-14T12:08:42;3.67;;;2.10;;
8837;SDS011;4455;50.880;4.698;2022-08-14T12:11:11;2.85;;;1.90;;
8837;SDS011;4455;50.880;4.698;2022-08-14T12:13:38;2.30;;;2.10;;
8837;SDS011;4455;50.880;4.698;2022-08-14T12:16:07;2.45;;;2.00;;
8837;SDS011;4455;50.880;4.698;2022-08-14T12:18:38;2.28;;;2.08;;
8837;SDS011;4455;50.880;4.698;2022-08-14T12:21:12;2.20;;;2.10;;
8837;SDS011;4455;50.880;4.698;2022-08-14T12:23:40;2.40;;;2.20;;
8837;SDS011;4455;50.880;4.698;2022-08-14T12:26:07;2.47;;;2.28;;
8837;SDS011;4455;50.880;4.698;2022-08-14T12:28:34;2.72;;;2.45;;
8837;SDS011;4455;50.880;4.698;2022-08-14T12:31:10;3.15;;;2.20;;
8837;SDS011;4455;50.880;4.698;2022-08-14T12:33:54;2.90;;;2.50;;
8837;SDS011;4455;50.880;4.698;2022-08-14T12:36:21;2.95;;;2.45;;
8837;SDS011;4455;50.880;4.698;2022-08-14T12:38:47;2.75;;;2.55;;
8837;SDS011;4455;50.880;4.698;2022-08-14T12:41:20;3.15;;;2.33;;
8837;SDS011;4455;50.880;4.698;2022-08-14T12:46:27;2.70;;;2.00;;
8837;SDS011;4455;50.880;4.698;2022-08-14T12:48:58;2.40;;;2.20;;
8837;SDS011;4455;50.880;4.698;2022-08-14T12:51:30;2.05;;;1.95;;
8837;SDS011;4455;50.880;4.698;2022-08-14T12:53:58;2.67;;;2.47;;
8837;SDS011;4455;50.880;4.698;2022-08-14T12:56:24;3.30;;;2.45;;
8837;SDS011;4455;50.880;4.698;2022-08-14T12:58:51;3.75;;;2.35;;
8837;SDS011;4455;50.880;4.698;2022-08-14T13:01:20;3.58;;;2.45;;
8837;SDS011;4455;50.880;4.698;2022-08-14T13:03:47;3.92;;;2.65;;
8837;SDS011;4455;50.880;4.698;2022-08-14T13:06:13;3.70;;;2.83;;
8837;SDS011;4455;50.880;4.698;2022-08-14T13:08:40;2.42;;;2.22;;
8837;SDS011;4455;50.880;4.698;2022-08-14T13:11:13;3.92;;;2.38;;
8837;SDS011;4455;50.880;4.698;2022-08-14T13:13:41;2.70;;;2.50;;
8837;SDS011;4455;50.880;4.698;2022-08-14T13:16:09;4.18;;;2.60;;
8837;SDS011;4455;50.880;4.698;2022-08-14T13:18:43;2.50;;;2.30;;
8837;SDS011;4455;50.880;4.698;2022-08-14T13:21:13;2.65;;;2.45;;
8837;SDS011;4455;50.880;4.698;2022-08-14T13:23:40;2.78;;;2.35;;
8837;SDS011;4455;50.880;4.698;2022-08-14T13:26:08;2.47;;;2.30;;
8837;SDS011;4455;50.880;4.698;2022-08-14T13:28:37;3.10;;;2.60;;
8837;SDS011;4455;50.880;4.698;2022-08-14T13:31:06;5.28;;;3.40;;
8837;SDS011;4455;50.880;4.698;2022-08-14T13:33:34;3.65;;;2.45;;
8837;SDS011;4455;50.880;4.698;2022-08-14T13:36:01;2.90;;;2.70;;
8837;SDS011;4455;50.880;4.698;2022-08-14T13:38:28;2.38;;;2.20;;
8837;SDS011;4455;50.880;4.698;2022-08-14T13:40:55;2.28;;;2.17;;
8837;SDS011;4455;50.880;4.698;2022-08-14T13:43:23;3.00;;;2.70;;
8837;SDS011;4455;50.880;4.698;2022-08-14T13:45:49;2.90;;;2.70;;
8837;SDS011;4455;50.880;4.698;2022-08-14T13:48:17;3.20;;;2.35;;
8837;SDS011;4455;50.880;4.698;2022-08-14T13:50:43;2.67;;;2.47;;
8837;SDS011;4455;50.880;4.698;2022-08-14T13:53:12;2.72;;;2.53;;
8837;SDS011;4455;50.880;4.698;2022-08-14T13:55:40;4.82;;;3.13;;
8837;SDS011;4455;50.880;4.698;2022-08-14T13:58:08;2.85;;;2.65;;
8837;SDS011;4455;50.880;4.698;2022-08-14T14:00:36;4.68;;;2.45;;
8837;SDS011;4455;50.880;4.698;2022-08-14T14:03:04;3.42;;;2.40;;
8837;SDS011;4455;50.880;4.698;2022-08-14T14:05:31;2.50;;;2.30;;
8837;SDS011;4455;50.880;4.698;2022-08-14T14:08:02;3.22;;;2.30;;
8837;SDS011;4455;50.880;4.698;2022-08-14T14:10:31;3.63;;;3.13;;
8837;SDS011;4455;50.880;4.698;2022-08-14T14:13:01;2.72;;;2.50;;
8837;SDS011;4455;50.880;4.698;2022-08-14T14:15:30;2.10;;;2.00;;
8837;SDS011;4455;50.880;4.698;2022-08-14T14:17:55;2.55;;;2.35;;
8837;SDS011;4455;50.880;4.698;2022-08-14T14:20:24;3.08;;;2.42;;
8837;SDS011;4455;50.880;4.698;2022-08-14T14:22:50;2.40;;;2.20;;
8837;SDS011;4455;50.880;4.698;2022-08-14T14:25:17;2.33;;;2.10;;
8837;SDS011;4455;50.880;4.698;2022-08-14T14:27:48;2.70;;;2.50;;
8837;SDS011;4455;50.880;4.698;2022-08-14T14:30:15;2.35;;;2.15;;
8837;SDS011;4455;50.880;4.698;2022-08-14T14:32:43;3.05;;;2.75;;
8837;SDS011;4455;50.880;4.698;2022-08-14T14:35:12;2.50;;;2.30;;
8837;SDS011;4455;50.880;4.698;2022-08-14T14:37:40;2.40;;;2.20;;
8837;SDS011;4455;50.880;4.698;2022-08-14T14:40:07;3.40;;;3.10;;
8837;SDS011;4455;50.880;4.698;2022-08-14T14:42:49;4.38;;;2.58;;
8837;SDS011;4455;50.880;4.698;2022-08-14T14:45:20;3.20;;;2.30;;
8837;SDS011;4455;50.880;4.698;2022-08-14T14:47:51;2.35;;;2.10;;
8837;SDS011;4455;50.880;4.698;2022-08-14T14:50:19;2.45;;;2.25;;
8837;SDS011;4455;50.880;4.698;2022-08-14T14:52:45;2.53;;;2.33;;
8837;SDS011;4455;50.880;4.698;2022-08-14T14:55:13;4.07;;;2.40;;
8837;SDS011;4455;50.880;4.698;2022-08-14T14:57:40;3.33;;;2.13;;
8837;SDS011;4455;50.880;4.698;2022-08-14T15:00:10;2.70;;;2.40;;
8837;SDS011;4455;50.880;4.698;2022-08-14T15:02:47;3.20;;;2.47;;
8837;SDS011;4455;50.880;4.698;2022-08-14T15:05:15;2.58;;;2.38;;
8837;SDS011;4455;50.880;4.698;2022-08-14T15:07:42;2.35;;;2.15;;
8837;SDS011;4455;50.880;4.698;2022-08-14T15:10:11;3.00;;;2.53;;
8837;SDS011;4455;50.880;4.698;2022-08-14T15:12:39;2.15;;;2.05;;
8837;SDS011;4455;50.880;4.698;2022-08-14T15:15:06;2.53;;;2.33;;
8837;SDS011;4455;50.880;4.698;2022-08-14T15:17:32;4.47;;;2.35;;
8837;SDS011;4455;50.880;4.698;2022-08-14T15:20:11;2.63;;;2.25;;
8837;SDS011;4455;50.880;4.698;2022-08-14T15:22:39;2.67;;;2.47;;
8837;SDS011;4455;50.880;4.698;2022-08-14T15:25:06;2.85;;;2.60;;
8837;SDS011;4455;50.880;4.698;2022-08-14T15:27:34;3.25;;;2.95;;
8837;SDS011;4455;50.880;4.698;2022-08-14T15:30:01;2.28;;;2.08;;
8837;SDS011;4455;50.880;4.698;2022-08-14T15:32:29;5.45;;;2.67;;
8837;SDS011;4455;50.880;4.698;2022-08-14T15:34:55;3.13;;;2.40;;
8837;SDS011;4455;50.880;4.698;2022-08-14T15:37:22;3.03;;;2.50;;
8837;SDS011;4455;50.880;4.698;2022-08-14T15:39:48;3.28;;;2.45;;
8837;SDS011;4455;50.880;4.698;2022-08-14T15:42:14;2.60;;;2.40;;
8837;SDS011;4455;50.880;4.698;2022-08-14T15:44:40;5.72;;;2.47;;
8837;SDS011;4455;50.880;4.698;2022-08-14T15:47:06;2.75;;;2.55;;
8837;SDS011;4455;50.880;4.698;2022-08-14T15:49:33;2.60;;;2.40;;